Details From LIEO - OLBIA COSTA SMERALDA
To LIRA - CIAMPINO
Flight Number -
Tags generated
Created
Modified
Stats Distance 149 nm / 277 km
Max Altitude 15,200 ft / 4,633 m
Waypoints 3
Social Downloads 0
Likes 0
Share VATSIM

Download

Looking for another format? Having issues loading an existing format? Contact us
Advertisement - Login to hide

Notes

Basic altitude profile: - Ascent Rate: 2500ft/min - Ascent Speed: 250kts - Cruise Altitude: 35000ft - Cruise Speed: 420kts - Descent Rate: 1500ft/min - Descent Speed: 250kts Options: - Use NATs: yes - Use PACOTS: yes - Use low airways: yes - Use high airways: yes

Route

LIEO TINTO LIRA

ID Type Via Altitude Latitude Longitude Leg Dist Tot Dist Heading (true) Name
O LIEO APT - 0 ft / 0 m 40.89866˚ 9.51763˚ - 0 nm - OLBIA COSTA SMERALDA
TINTO FIX - 15,200 ft / 4,633 m 41.47806˚ 11.06778˚ 78 nm 78 nm 63° / 64° -
O LIRA APT - 0 ft / 0 m 41.79923˚ 12.59492˚ 71 nm 149 nm 74° / 75° CIAMPINO

Altitude Profile

Advertisement - Login to hide

LIEO

Details ICAO LIEO (OLB)
Name OLBIA COSTA SMERALDA
Region Italy
Timezone Europe/Rome (UTC+2.0)
Stats Elevation 37 ft / 11 m (AMSL)
Location 40.898661° 9.517629°
Runways 1
Magnetic Variation 2.489° E

METAR

LIEO 261750Z 10006KT CAVOK 24/11 Q1017

Decode

TAF

TAF LIEO 261700Z 2618/2718 VRB04KT CAVOK BECMG 2708/2710 06012KT

Decode

Departure Runways

ID Width Length Bearing (true) Bearing (mag) Surface Threshold Offset Overrun Length
06 148 ft / 45 m 8,013 ft / 2,442 m 55.30° 52.81° Asphalt 805 ft / 245 m 180 ft / 55 m
24 148 ft / 45 m 8,013 ft / 2,442 m 235.31° 232.82° Asphalt 495 ft / 151 m 180 ft / 55 m

LIRA

Details ICAO LIRA (CIA)
Name CIAMPINO
Region Italy
Timezone Europe/Rome (UTC+2.0)
Stats Elevation 427 ft / 130 m (AMSL)
Location 41.799228° 12.594917°
Runways 1
Magnetic Variation 3.104° E

METAR

LIRA 261750Z 22003KT 190V270 CAVOK 24/16 Q1018

Decode

TAF

TAF LIRA 261700Z 2618/2718 24006KT 9999 SCT030 TEMPO 2700/2705 4000 BR TEMPO 2712/2716 4000 SHRA

Decode

Destination Runways

ID Width Length Bearing (true) Bearing (mag) Surface Threshold Offset Overrun Length
15 154 ft / 47 m 7,246 ft / 2,209 m 152.79° 149.69° Asphalt 0 ft / 0 m 0 ft / 0 m
33 154 ft / 47 m 7,246 ft / 2,209 m 332.80° 329.70° Asphalt 0 ft / 0 m 0 ft / 0 m

Approach Navaids

Runway Type Ident Frequency Range Bearing (true) Bearing (mag) Slope Elevation
15 Localiser CIA 109.90 MHz 18 nm / 33 km 152.81° 149.71° - 426 ft / 130 m (AMSL)
15 Glidescope CIA 109.90 MHz 10 nm / 19 km 152.79° 149.69° 3.00° 384 ft / 117 m (AMSL)

Popular Alternatives